Time;durP1;ratioP1;P1;durP2;ratioP2;P2;SDS_P1;SDS_P2;PMS_P1;PMS_P2;Temp;Humidity;BMP_temperature;BMP_pressure;BME280_temperature;BME280_humidity;BME280_pressure;Samples;Min_cycle;Max_cycle;Signal;HPM_P1;HPM_P2
2023/12/05 00:01:50;;;;;;;19.75;8.77;;;0.40;99.90;;;;;;5018391;28;20063;-81
2023/12/05 00:04:16;;;;;;;18.20;10.27;;;0.40;99.90;;;;;;5024396;28;20383;-81
2023/12/05 00:06:43;;;;;;;16.55;10.27;;;0.40;99.90;;;;;;5021712;28;20542;-80
2023/12/05 00:09:08;;;;;;;18.42;10.88;;;0.40;99.90;;;;;;5021436;28;20032;-81
2023/12/05 00:11:34;;;;;;;20.65;11.00;;;0.40;99.90;;;;;;5019580;28;20479;-81
2023/12/05 00:13:59;;;;;;;18.50;10.95;;;0.40;99.90;;;;;;5020018;28;20036;-81
2023/12/05 00:16:27;;;;;;;20.63;10.48;;;0.40;99.90;;;;;;5023465;28;20037;-81
2023/12/05 00:18:52;;;;;;;18.00;11.07;;;0.40;99.90;;;;;;5024113;28;20116;-81
2023/12/05 00:21:18;;;;;;;20.85;11.10;;;0.40;99.90;;;;;;5023895;28;20077;-81
2023/12/05 00:23:43;;;;;;;27.77;12.93;;;0.40;99.90;;;;;;5017933;28;20728;-81
2023/12/05 00:26:09;;;;;;;25.20;12.98;;;0.40;99.90;;;;;;5018873;28;20379;-81
2023/12/05 00:28:35;;;;;;;22.60;11.75;;;0.40;99.90;;;;;;5019079;28;20124;-81
2023/12/05 00:31:01;;;;;;;18.48;10.45;;;0.40;99.90;;;;;;5021891;28;20022;-81
2023/12/05 00:33:26;;;;;;;24.25;11.65;;;0.30;99.90;;;;;;5018049;28;20033;-81
2023/12/05 00:35:52;;;;;;;19.95;10.82;;;0.30;99.90;;;;;;5020298;28;20252;-81
2023/12/05 00:38:17;;;;;;;22.77;11.48;;;0.30;99.90;;;;;;5017285;28;20052;-81
2023/12/05 00:40:44;;;;;;;25.10;13.18;;;0.30;99.90;;;;;;5020305;28;20046;-81
2023/12/05 00:43:10;;;;;;;19.85;12.18;;;0.30;99.90;;;;;;5020870;28;20532;-81
2023/12/05 00:45:35;;;;;;;24.67;12.15;;;0.30;99.90;;;;;;5021878;28;20037;-81
2023/12/05 00:48:01;;;;;;;22.83;13.60;;;0.30;99.90;;;;;;5016473;28;20033;-81
2023/12/05 00:50:26;;;;;;;31.85;14.50;;;0.30;99.90;;;;;;5020512;28;20112;-81
2023/12/05 00:52:52;;;;;;;26.92;12.77;;;0.30;99.90;;;;;;5021895;28;20423;-81
2023/12/05 00:55:17;;;;;;;26.17;13.32;;;0.30;99.90;;;;;;5013081;28;20029;-81
2023/12/05 00:57:43;;;;;;;26.20;13.43;;;0.30;99.90;;;;;;5021078;28;20033;-81
2023/12/05 01:00:13;;;;;;;25.00;13.98;;;0.30;99.90;;;;;;5023414;28;20489;-81
2023/12/05 01:02:39;;;;;;;27.77;13.50;;;0.30;99.90;;;;;;5022534;28;20033;-81
2023/12/05 01:05:08;;;;;;;25.58;12.63;;;0.20;99.90;;;;;;5020980;28;20061;-81
2023/12/05 01:07:34;;;;;;;33.75;13.90;;;0.20;99.90;;;;;;5023611;28;20033;-81
2023/12/05 01:10:04;;;;;;;23.83;13.10;;;0.30;99.90;;;;;;5018074;28;20033;-82
2023/12/05 01:12:29;;;;;;;23.92;13.00;;;0.20;99.90;;;;;;5020216;28;20022;-81
2023/12/05 01:14:55;;;;;;;31.42;15.60;;;0.20;99.90;;;;;;5016284;28;20040;-81
2023/12/05 01:17:20;;;;;;;23.10;13.55;;;0.20;99.90;;;;;;5005023;28;20395;-81
2023/12/05 01:19:46;;;;;;;29.58;13.82;;;0.20;99.90;;;;;;5016845;28;20075;-82
2023/12/05 01:22:15;;;;;;;27.80;15.00;;;0.20;99.90;;;;;;5025403;28;20048;-81
2023/12/05 01:24:41;;;;;;;28.25;14.82;;;0.20;99.90;;;;;;5022092;28;20028;-81
2023/12/05 01:27:07;;;;;;;32.72;14.45;;;0.20;99.90;;;;;;5025274;28;20483;-81
2023/12/05 01:29:33;;;;;;;33.55;13.63;;;0.20;99.90;;;;;;5024447;28;20040;-81
2023/12/05 01:31:58;;;;;;;31.20;14.10;;;0.20;99.90;;;;;;5005592;28;20037;-81
2023/12/05 01:34:25;;;;;;;28.20;14.30;;;0.20;99.90;;;;;;5023144;28;20570;-81
2023/12/05 01:36:50;;;;;;;24.58;13.63;;;0.20;99.90;;;;;;5023845;28;20509;-81
2023/12/05 01:39:16;;;;;;;25.30;14.18;;;0.20;99.90;;;;;;5027501;28;20050;-82
2023/12/05 01:41:42;;;;;;;25.45;13.15;;;0.20;99.90;;;;;;5024644;28;20029;-80
2023/12/05 01:44:07;;;;;;;36.70;14.48;;;0.30;99.90;;;;;;5025020;28;20032;-81
2023/12/05 01:46:34;;;;;;;29.08;15.48;;;0.20;99.90;;;;;;5023000;28;20309;-82
2023/12/05 01:48:59;;;;;;;25.13;12.40;;;0.20;99.90;;;;;;5025888;28;20029;-81
2023/12/05 01:51:26;;;;;;;25.20;13.15;;;0.20;99.90;;;;;;5027134;28;20026;-81
2023/12/05 01:53:52;;;;;;;28.75;13.93;;;0.20;99.90;;;;;;5024156;28;20112;-81
2023/12/05 01:56:18;;;;;;;23.35;12.85;;;0.20;99.90;;;;;;5022664;28;20034;-81
2023/12/05 01:58:44;;;;;;;29.90;14.98;;;0.20;99.90;;;;;;5023203;28;20033;-81
2023/12/05 02:01:13;;;;;;;28.13;13.85;;;0.20;99.90;;;;;;5022685;28;20429;-81
2023/12/05 02:03:40;;;;;;;23.35;12.43;;;0.20;99.90;;;;;;5025195;28;20495;-82
2023/12/05 02:06:06;;;;;;;24.30;12.63;;;0.20;99.90;;;;;;5002229;28;20079;-81
2023/12/05 02:08:33;;;;;;;24.02;12.63;;;0.20;99.90;;;;;;5024583;28;20025;-81
2023/12/05 02:10:59;;;;;;;33.17;15.02;;;0.20;99.90;;;;;;5022897;28;20064;-81
2023/12/05 02:13:25;;;;;;;50.17;19.15;;;0.20;99.90;;;;;;5019541;28;20029;-81
2023/12/05 02:16:16;;;;;;;33.33;14.30;;;0.20;99.90;;;;;;5024230;28;20030;-81
2023/12/05 02:18:51;;;;;;;30.75;13.82;;;0.20;99.90;;;;;;5023209;28;20114;-81
2023/12/05 02:21:22;;;;;;;27.00;14.82;;;0.20;99.90;;;;;;5023054;28;20083;-81
2023/12/05 02:24:16;;;;;;;22.88;12.93;;;0.20;99.90;;;;;;5024460;28;20029;-81
2023/12/05 02:27:24;;;;;;;25.20;13.70;;;0.20;99.90;;;;;;5024144;28;20087;-81
2023/12/05 02:29:51;;;;;;;29.17;14.50;;;0.20;99.90;;;;;;4983142;28;20440;-81
2023/12/05 02:32:17;;;;;;;24.55;13.52;;;0.20;99.90;;;;;;5024977;28;20028;-80
2023/12/05 02:34:43;;;;;;;27.38;14.30;;;0.20;99.90;;;;;;5021606;28;20482;-82
2023/12/05 02:37:22;;;;;;;26.55;13.32;;;0.30;99.90;;;;;;5023137;28;20131;-81
2023/12/05 02:39:57;;;;;;;27.08;13.52;;;0.20;99.90;;;;;;5025598;28;20786;-81
2023/12/05 02:42:25;;;;;;;29.00;14.40;;;0.20;99.90;;;;;;5024686;28;20471;-81
2023/12/05 02:44:52;;;;;;;28.27;15.07;;;0.20;99.90;;;;;;5018144;28;20056;-81
2023/12/05 02:47:22;;;;;;;26.45;14.35;;;0.20;99.90;;;;;;5024478;28;20029;-81
2023/12/05 02:49:47;;;;;;;29.85;14.88;;;0.20;99.90;;;;;;5023160;28;20029;-81
2023/12/05 02:52:13;;;;;;;30.00;15.57;;;0.30;99.90;;;;;;5024685;28;20471;-80
2023/12/05 02:54:39;;;;;;;26.25;14.07;;;0.20;99.90;;;;;;5022351;28;20049;-81
2023/12/05 02:57:04;;;;;;;23.27;13.48;;;0.20;99.90;;;;;;5021793;28;20037;-81
2023/12/05 02:59:30;;;;;;;30.98;15.45;;;0.20;99.90;;;;;;5024122;28;20095;-81
2023/12/05 03:01:55;;;;;;;34.65;15.30;;;0.20;99.90;;;;;;5024157;28;20117;-81
2023/12/05 03:04:21;;;;;;;36.45;16.35;;;0.20;99.90;;;;;;5022681;28;20025;-80
2023/12/05 03:06:49;;;;;;;32.13;16.90;;;0.20;99.90;;;;;;5021004;28;20022;-81
2023/12/05 03:09:15;;;;;;;32.33;14.60;;;0.20;99.90;;;;;;5022762;28;20087;-81
2023/12/05 03:11:40;;;;;;;34.15;17.45;;;0.20;99.90;;;;;;5021827;28;20037;-80
2023/12/05 03:14:06;;;;;;;29.15;15.75;;;0.20;99.90;;;;;;5016121;28;20029;-81
2023/12/05 03:16:32;;;;;;;27.52;15.52;;;0.20;99.90;;;;;;5019815;28;20037;-81
2023/12/05 03:18:57;;;;;;;30.15;15.23;;;0.20;99.90;;;;;;5020583;28;20033;-81
2023/12/05 03:21:24;;;;;;;33.75;17.50;;;0.20;99.90;;;;;;5022264;28;20493;-81
2023/12/05 03:23:50;;;;;;;28.33;14.55;;;0.20;99.90;;;;;;5022505;28;20025;-80
2023/12/05 03:26:20;;;;;;;27.55;14.07;;;0.20;99.90;;;;;;5024328;28;20056;-81
2023/12/05 03:28:49;;;;;;;28.38;14.60;;;0.20;99.90;;;;;;5024648;28;20043;-81
2023/12/05 03:31:15;;;;;;;27.00;14.30;;;0.20;99.90;;;;;;5019446;28;20029;-81
2023/12/05 03:33:41;;;;;;;32.13;15.93;;;0.20;99.90;;;;;;5019706;28;20021;-81
2023/12/05 03:36:07;;;;;;;31.77;15.75;;;0.20;99.90;;;;;;4993632;28;20467;-81
2023/12/05 03:38:33;;;;;;;30.35;14.60;;;0.20;99.90;;;;;;5019936;28;20038;-81
2023/12/05 03:40:59;;;;;;;30.65;16.55;;;0.20;99.90;;;;;;5003348;28;20034;-81
2023/12/05 03:43:24;;;;;;;29.65;16.25;;;0.20;99.90;;;;;;5003385;28;20052;-81
2023/12/05 03:45:50;;;;;;;33.78;15.27;;;0.20;99.90;;;;;;5000237;28;20037;-81
2023/12/05 03:48:16;;;;;;;29.10;14.63;;;0.20;99.90;;;;;;4994006;28;20384;-81
2023/12/05 03:50:41;;;;;;;28.40;15.48;;;0.10;99.90;;;;;;4997878;28;20049;-81
2023/12/05 03:53:07;;;;;;;28.38;15.43;;;0.10;99.90;;;;;;5000893;28;20044;-81
2023/12/05 03:55:34;;;;;;;31.35;14.95;;;0.10;99.90;;;;;;5002311;28;20022;-81
2023/12/05 03:58:01;;;;;;;29.48;14.27;;;0.10;99.90;;;;;;4998510;28;20068;-81
2023/12/05 04:00:27;;;;;;;29.75;14.68;;;0.10;99.90;;;;;;4991901;28;20468;-81
2023/12/05 04:02:54;;;;;;;30.42;15.32;;;0.10;99.90;;;;;;4998719;28;20026;-81
2023/12/05 04:05:20;;;;;;;28.50;15.43;;;0.20;99.90;;;;;;5002750;28;20055;-81
2023/12/05 04:07:46;;;;;;;32.95;16.90;;;0.20;99.90;;;;;;4994032;28;20037;-81
2023/12/05 04:10:12;;;;;;;28.75;14.77;;;0.20;99.90;;;;;;5003948;28;20164;-81
2023/12/05 04:12:41;;;;;;;31.45;15.73;;;0.10;99.90;;;;;;4995442;28;20034;-82
2023/12/05 04:15:07;;;;;;;30.63;16.05;;;0.10;99.90;;;;;;5001681;28;20026;-81
2023/12/05 04:17:34;;;;;;;35.15;16.48;;;0.10;99.90;;;;;;5003536;28;20569;-81
2023/12/05 04:20:01;;;;;;;32.95;16.83;;;0.10;99.90;;;;;;4984532;28;20105;-81
2023/12/05 04:22:26;;;;;;;27.55;14.82;;;0.10;99.90;;;;;;5000098;28;20104;-82
2023/12/05 04:24:52;;;;;;;25.88;14.23;;;0.10;99.90;;;;;;4999933;28;20483;-81
2023/12/05 04:27:18;;;;;;;33.47;16.45;;;0.10;99.90;;;;;;5000464;28;20033;-80
2023/12/05 04:29:45;;;;;;;28.65;15.13;;;0.20;99.90;;;;;;5002424;28;20021;-80
2023/12/05 04:32:10;;;;;;;27.83;15.45;;;0.20;99.90;;;;;;4999361;28;20076;-82
2023/12/05 04:34:37;;;;;;;32.00;15.63;;;0.20;99.90;;;;;;4993455;28;20443;-81
2023/12/05 04:37:06;;;;;;;30.75;15.90;;;0.20;99.90;;;;;;4998963;28;20054;-81
2023/12/05 04:39:31;;;;;;;29.42;16.02;;;0.20;99.90;;;;;;4989390;28;20092;-81
2023/12/05 04:41:57;;;;;;;32.42;16.33;;;0.10;99.90;;;;;;5017115;28;20061;-81
2023/12/05 04:44:22;;;;;;;29.55;16.13;;;0.10;99.90;;;;;;4992760;28;20089;-81
2023/12/05 04:46:48;;;;;;;35.63;16.27;;;0.10;99.90;;;;;;5001861;28;20026;-81
2023/12/05 04:49:13;;;;;;;29.75;15.18;;;0.10;99.90;;;;;;5021146;28;20231;-80
2023/12/05 04:51:39;;;;;;;35.22;17.80;;;0.10;99.90;;;;;;5021274;28;20057;-80
2023/12/05 04:54:04;;;;;;;33.42;16.25;;;0.10;99.90;;;;;;5022673;28;20120;-80
2023/12/05 04:56:30;;;;;;;30.88;15.60;;;0.20;99.90;;;;;;5022900;28;20053;-82
2023/12/05 04:58:55;;;;;;;31.10;14.32;;;0.20;99.90;;;;;;5022982;28;20079;-81
2023/12/05 05:01:21;;;;;;;31.05;14.98;;;0.20;99.90;;;;;;5018045;28;20030;-79
2023/12/05 05:03:46;;;;;;;26.83;14.65;;;0.20;99.90;;;;;;5024312;28;20443;-80
2023/12/05 05:06:12;;;;;;;29.52;16.33;;;0.20;99.90;;;;;;5020123;28;20085;-81
2023/12/05 05:08:41;;;;;;;25.50;14.43;;;0.20;99.90;;;;;;5026402;28;20438;-80
2023/12/05 05:11:06;;;;;;;33.17;16.55;;;0.20;99.90;;;;;;5026565;28;20478;-80
2023/12/05 05:13:32;;;;;;;29.83;16.15;;;0.20;99.90;;;;;;5024024;28;20057;-80
2023/12/05 05:15:58;;;;;;;30.33;15.57;;;0.20;99.90;;;;;;5026163;28;20029;-80
2023/12/05 05:18:24;;;;;;;26.67;15.15;;;0.20;99.90;;;;;;5014556;28;20033;-81
2023/12/05 05:20:50;;;;;;;29.20;15.20;;;0.20;99.90;;;;;;5020602;28;20030;-81
2023/12/05 05:23:15;;;;;;;35.95;15.73;;;0.30;99.90;;;;;;5025035;28;20028;-81
2023/12/05 05:25:41;;;;;;;29.73;15.30;;;0.30;99.90;;;;;;5014695;28;20025;-80
2023/12/05 05:28:09;;;;;;;29.73;15.63;;;0.30;99.90;;;;;;5019663;28;20025;-80
2023/12/05 05:30:35;;;;;;;27.30;15.02;;;0.40;99.90;;;;;;5017715;28;20033;-80
2023/12/05 05:33:01;;;;;;;26.88;15.10;;;0.30;99.90;;;;;;5015448;28;20858;-81
2023/12/05 05:35:27;;;;;;;26.98;14.70;;;0.30;99.90;;;;;;5017324;28;20084;-81
2023/12/05 05:37:52;;;;;;;32.80;15.57;;;0.30;99.90;;;;;;5016412;28;20041;-81
2023/12/05 05:40:18;;;;;;;28.77;14.20;;;0.30;99.90;;;;;;5023505;28;20511;-82
2023/12/05 05:42:44;;;;;;;28.40;14.75;;;0.30;99.90;;;;;;5003571;28;20026;-80
2023/12/05 05:45:11;;;;;;;33.78;15.50;;;0.40;99.90;;;;;;5020956;28;20037;-80
2023/12/05 05:47:37;;;;;;;28.80;15.95;;;0.40;99.90;;;;;;5022757;28;20112;-80
2023/12/05 05:50:03;;;;;;;32.33;15.98;;;0.40;99.90;;;;;;5012955;28;20112;-79
2023/12/05 05:52:29;;;;;;;27.90;13.80;;;0.40;99.90;;;;;;5016531;28;20031;-80
2023/12/05 05:54:55;;;;;;;28.73;15.45;;;0.40;99.90;;;;;;5021020;28;20022;-80
2023/12/05 05:57:20;;;;;;;29.70;15.35;;;0.40;99.90;;;;;;5019582;28;20116;-79
2023/12/05 05:59:46;;;;;;;26.00;14.52;;;0.50;99.90;;;;;;5024990;28;20026;-79
2023/12/05 06:02:12;;;;;;;28.50;15.18;;;0.40;99.90;;;;;;5020170;28;20475;-80
2023/12/05 06:04:43;;;;;;;31.70;15.07;;;0.40;99.90;;;;;;5027304;28;20203;-80
2023/12/05 06:07:09;;;;;;;31.63;15.57;;;0.40;99.90;;;;;;5024989;28;20035;-79
2023/12/05 06:09:35;;;;;;;26.23;15.23;;;0.40;99.90;;;;;;5027034;28;20018;-79
2023/12/05 06:12:03;;;;;;;27.23;14.70;;;0.40;99.90;;;;;;5018669;28;20032;-79
2023/12/05 06:14:29;;;;;;;30.52;15.10;;;0.40;99.90;;;;;;5026527;28;20029;-79
2023/12/05 06:16:55;;;;;;;27.45;15.02;;;0.40;99.90;;;;;;5024150;28;20037;-79
2023/12/05 06:19:20;;;;;;;28.13;14.80;;;0.50;99.90;;;;;;5010110;28;20514;-79
2023/12/05 06:21:46;;;;;;;22.67;12.82;;;0.50;99.90;;;;;;5015103;28;20113;-79
2023/12/05 06:24:11;;;;;;;27.38;15.70;;;0.50;99.90;;;;;;4998816;28;20137;-80
2023/12/05 06:26:37;;;;;;;31.20;16.02;;;0.50;99.90;;;;;;5024345;28;20379;-80
2023/12/05 06:29:05;;;;;;;29.95;16.92;;;0.50;99.90;;;;;;5016216;28;20534;-79
2023/12/05 06:31:31;;;;;;;29.23;14.25;;;0.50;99.90;;;;;;5017943;28;20068;-79
2023/12/05 06:34:01;;;;;;;29.08;15.93;;;0.50;99.90;;;;;;5026286;28;20483;-79
2023/12/05 06:36:27;;;;;;;33.78;17.23;;;0.60;99.90;;;;;;5021470;28;20109;-81
2023/12/05 06:38:53;;;;;;;31.50;14.82;;;0.60;99.90;;;;;;5025484;28;20053;-79
2023/12/05 06:41:19;;;;;;;32.75;17.95;;;0.60;99.90;;;;;;5026857;28;20022;-80
2023/12/05 06:43:44;;;;;;;28.17;14.68;;;0.60;99.90;;;;;;5020178;28;20022;-79
2023/12/05 06:46:10;;;;;;;25.00;14.00;;;0.60;99.90;;;;;;5019206;28;20025;-79
2023/12/05 06:48:35;;;;;;;26.20;13.90;;;0.60;99.90;;;;;;5020212;28;20025;-81
2023/12/05 06:51:01;;;;;;;27.33;13.75;;;0.60;99.90;;;;;;5017972;28;20029;-80
2023/12/05 06:53:26;;;;;;;28.60;15.45;;;0.60;99.90;;;;;;5019179;28;20033;-79
2023/12/05 06:55:53;;;;;;;29.25;15.10;;;0.60;99.90;;;;;;5009941;28;20364;-79
2023/12/05 06:58:21;;;;;;;30.48;15.57;;;0.60;99.90;;;;;;5021695;28;20131;-79
2023/12/05 07:00:47;;;;;;;28.83;16.00;;;0.70;99.90;;;;;;5005449;28;20378;-79
2023/12/05 07:03:13;;;;;;;33.13;16.05;;;0.70;99.90;;;;;;5011425;28;20034;-79
2023/12/05 07:05:38;;;;;;;28.90;14.98;;;0.70;99.90;;;;;;5011349;28;20034;-80
2023/12/05 07:08:06;;;;;;;30.00;15.77;;;0.70;99.90;;;;;;5009360;28;20029;-79
2023/12/05 07:10:32;;;;;;;33.00;16.55;;;0.70;99.90;;;;;;5024023;28;20026;-79
2023/12/05 07:12:58;;;;;;;27.58;14.70;;;0.80;99.90;;;;;;5023366;28;20025;-78
2023/12/05 07:15:23;;;;;;;22.83;13.18;;;0.80;99.90;;;;;;5004155;28;20032;-80
2023/12/05 07:17:49;;;;;;;23.02;13.23;;;0.80;99.90;;;;;;5017561;28;20125;-79
2023/12/05 07:20:15;;;;;;;30.23;15.77;;;0.80;99.90;;;;;;5010496;28;20057;-79
2023/12/05 07:22:44;;;;;;;27.35;14.90;;;0.80;99.90;;;;;;5007416;28;20032;-81
2023/12/05 07:25:10;;;;;;;23.95;14.50;;;0.80;99.90;;;;;;5015841;28;20160;-79
2023/12/05 07:27:36;;;;;;;28.92;14.80;;;0.90;99.90;;;;;;5002606;28;20415;-79
2023/12/05 07:30:02;;;;;;;29.92;16.10;;;0.80;99.90;;;;;;5015416;28;20120;-79
2023/12/05 07:32:28;;;;;;;30.38;15.13;;;0.90;99.90;;;;;;5015246;28;20025;-79
2023/12/05 07:34:53;;;;;;;28.33;14.88;;;0.90;99.90;;;;;;5002779;28;20091;-79
2023/12/05 07:37:19;;;;;;;24.38;14.18;;;1.00;99.90;;;;;;5022610;28;20045;-79
2023/12/05 07:39:47;;;;;;;22.02;13.60;;;1.00;99.90;;;;;;5024212;28;20474;-80
2023/12/05 07:42:15;;;;;;;20.45;12.88;;;1.00;99.90;;;;;;5015377;28;20057;-78
2023/12/05 07:44:40;;;;;;;25.77;13.77;;;1.00;99.90;;;;;;5002561;28;20075;-80
2023/12/05 07:47:07;;;;;;;22.95;12.88;;;1.00;99.90;;;;;;5014459;28;20030;-79
2023/12/05 07:49:33;;;;;;;23.98;13.27;;;1.00;99.90;;;;;;5022350;28;20120;-79
2023/12/05 07:51:59;;;;;;;26.15;13.98;;;1.00;99.90;;;;;;5017757;28;20030;-79
2023/12/05 07:54:25;;;;;;;27.15;14.35;;;1.10;99.90;;;;;;5020362;28;20029;-79
2023/12/05 07:56:50;;;;;;;33.35;16.05;;;1.10;99.90;;;;;;5016786;28;20052;-81
2023/12/05 07:59:16;;;;;;;25.92;15.05;;;1.10;99.90;;;;;;5021396;28;20037;-79
2023/12/05 08:01:42;;;;;;;27.95;14.90;;;1.10;99.90;;;;;;5019782;28;20032;-79
2023/12/05 08:04:08;;;;;;;26.67;15.70;;;1.20;99.90;;;;;;5022562;28;20033;-79
2023/12/05 08:06:34;;;;;;;22.55;13.30;;;1.20;99.90;;;;;;5017992;28;20056;-80
2023/12/05 08:08:59;;;;;;;26.38;13.57;;;1.20;99.90;;;;;;5022285;28;20114;-79
2023/12/05 08:11:25;;;;;;;24.98;14.20;;;1.20;99.90;;;;;;5026743;28;20025;-79
2023/12/05 08:13:51;;;;;;;28.50;14.98;;;1.20;99.90;;;;;;5022165;28;20490;-80
2023/12/05 08:16:16;;;;;;;25.67;14.65;;;1.30;99.90;;;;;;5023306;28;20370;-79
2023/12/05 08:18:42;;;;;;;24.55;14.43;;;1.30;99.90;;;;;;5019117;28;20029;-79
2023/12/05 08:21:08;;;;;;;26.98;14.98;;;1.30;99.90;;;;;;5017153;28;20026;-79
2023/12/05 08:23:34;;;;;;;27.95;15.77;;;1.40;99.90;;;;;;5024475;28;20104;-80
2023/12/05 08:25:59;;;;;;;28.30;15.85;;;1.40;99.90;;;;;;5020260;28;20116;-79
2023/12/05 08:28:25;;;;;;;29.27;15.55;;;1.40;99.90;;;;;;5023246;28;20394;-80
2023/12/05 08:30:50;;;;;;;26.90;14.52;;;1.40;99.90;;;;;;5022572;28;20021;-79
2023/12/05 08:33:18;;;;;;;30.55;15.70;;;1.50;99.90;;;;;;5022967;28;20029;-78
2023/12/05 08:35:43;;;;;;;30.95;16.10;;;1.50;99.90;;;;;;5014224;28;20025;-78
2023/12/05 08:38:09;;;;;;;29.08;16.83;;;1.50;99.90;;;;;;5018871;28;20041;-78
2023/12/05 08:40:38;;;;;;;28.38;17.30;;;1.50;99.90;;;;;;4997301;28;20050;-81
2023/12/05 08:43:06;;;;;;;28.50;15.70;;;1.50;99.90;;;;;;5016022;28;20537;-80
2023/12/05 08:45:32;;;;;;;28.13;16.30;;;1.50;99.90;;;;;;5006206;28;20026;-78
2023/12/05 08:47:58;;;;;;;34.20;16.60;;;1.50;99.90;;;;;;5006041;28;20041;-82
2023/12/05 08:50:24;;;;;;;30.63;16.35;;;1.60;99.90;;;;;;5018759;28;20033;-78
2023/12/05 08:52:49;;;;;;;28.50;16.30;;;1.60;99.90;;;;;;5019381;28;20041;-79
2023/12/05 08:55:15;;;;;;;30.38;14.68;;;1.60;99.90;;;;;;5023151;28;20356;-78
2023/12/05 08:57:41;;;;;;;29.33;16.55;;;1.70;99.90;;;;;;5013494;28;20132;-79
2023/12/05 09:00:08;;;;;;;30.27;15.75;;;1.70;99.90;;;;;;5012205;28;20467;-80
2023/12/05 09:02:34;;;;;;;28.38;14.60;;;1.80;99.90;;;;;;5024091;28;20505;-78
2023/12/05 09:05:03;;;;;;;21.48;13.50;;;1.90;99.90;;;;;;5023349;28;20037;-81
2023/12/05 09:07:30;;;;;;;29.25;18.58;;;1.90;99.90;;;;;;5015480;28;20029;-77
2023/12/05 09:09:55;;;;;;;27.92;15.77;;;2.00;99.90;;;;;;5017747;28;20037;-78
2023/12/05 09:12:23;;;;;;;25.15;14.93;;;2.00;99.90;;;;;;5017153;28;20084;-79
2023/12/05 09:14:49;;;;;;;22.90;14.35;;;2.00;99.90;;;;;;5021276;28;20025;-79
2023/12/05 09:17:15;;;;;;;26.10;13.88;;;2.00;99.90;;;;;;5003551;28;20041;-79
2023/12/05 09:19:40;;;;;;;24.48;13.80;;;2.10;99.90;;;;;;5019516;28;20025;-79
2023/12/05 09:22:06;;;;;;;27.15;14.63;;;2.10;99.90;;;;;;5023555;28;20103;-79
2023/12/05 09:24:32;;;;;;;26.27;14.98;;;2.10;99.90;;;;;;5022978;28;20475;-78
2023/12/05 09:26:58;;;;;;;25.05;14.48;;;2.20;99.90;;;;;;5008397;28;20026;-78
2023/12/05 09:29:25;;;;;;;23.30;13.27;;;2.20;99.90;;;;;;5023621;28;20161;-80
2023/12/05 09:31:51;;;;;;;29.77;14.85;;;2.20;99.90;;;;;;5021563;28;20034;-79
2023/12/05 09:34:18;;;;;;;22.45;12.63;;;2.20;99.90;;;;;;5011121;28;20115;-78
2023/12/05 09:36:44;;;;;;;23.50;13.77;;;2.30;99.90;;;;;;4997179;28;20094;-78
2023/12/05 09:39:10;;;;;;;24.75;13.38;;;2.20;99.90;;;;;;5012904;28;20133;-78
2023/12/05 09:41:47;;;;;;;23.55;12.20;;;2.20;99.90;;;;;;5005569;28;20033;-79
2023/12/05 09:44:13;;;;;;;21.40;13.00;;;2.20;99.90;;;;;;4992742;28;20110;-78
2023/12/05 09:46:46;;;;;;;20.15;12.05;;;2.30;99.90;;;;;;4998027;28;20031;-81
2023/12/05 09:49:14;;;;;;;17.63;10.68;;;2.40;99.90;;;;;;4987549;28;20037;-78
2023/12/05 09:51:42;;;;;;;20.17;11.85;;;2.50;99.90;;;;;;4989999;28;20030;-79
2023/12/05 09:54:08;;;;;;;18.02;11.00;;;2.40;99.90;;;;;;4994638;28;20580;-78
2023/12/05 09:56:34;;;;;;;19.05;10.80;;;2.50;99.90;;;;;;4998043;28;20257;-79
2023/12/05 09:59:03;;;;;;;19.70;10.80;;;2.60;99.90;;;;;;5005106;28;20030;-79
2023/12/05 10:01:31;;;;;;;18.63;11.02;;;2.60;99.90;;;;;;5005128;28;20594;-78
2023/12/05 10:03:58;;;;;;;17.45;10.63;;;2.70;99.90;;;;;;4992936;28;20435;-78
2023/12/05 10:06:29;;;;;;;21.70;11.32;;;2.70;99.90;;;;;;4998795;28;20383;-78
2023/12/05 10:08:56;;;;;;;19.35;11.43;;;2.70;99.90;;;;;;5003847;28;20091;-78
2023/12/05 10:11:25;;;;;;;20.50;11.35;;;2.80;99.90;;;;;;5004506;28;20037;-77
2023/12/05 10:13:51;;;;;;;19.23;10.95;;;2.90;99.90;;;;;;5003328;28;20033;-80
2023/12/05 10:16:17;;;;;;;16.10;10.50;;;3.00;99.90;;;;;;4999577;28;20021;-79
2023/12/05 10:18:44;;;;;;;14.77;9.45;;;3.00;99.90;;;;;;5004579;28;20111;-79
2023/12/05 10:21:10;;;;;;;15.82;10.70;;;3.10;99.90;;;;;;5005198;28;20036;-78
2023/12/05 10:23:36;;;;;;;15.85;10.48;;;3.10;99.90;;;;;;4997444;28;20026;-79
2023/12/05 10:26:03;;;;;;;15.05;9.43;;;3.10;99.90;;;;;;4981527;28;20058;-79
2023/12/05 10:28:29;;;;;;;20.13;10.05;;;3.20;99.90;;;;;;4993485;28;20054;-79
2023/12/05 10:30:56;;;;;;;17.55;10.95;;;3.20;99.90;;;;;;5006108;28;20061;-79
2023/12/05 10:33:24;;;;;;;17.70;10.27;;;3.10;99.90;;;;;;5001348;28;20009;-80
2023/12/05 10:35:52;;;;;;;18.60;11.43;;;3.20;99.90;;;;;;4999591;28;20380;-83
2023/12/05 10:38:18;;;;;;;14.18;9.45;;;3.20;99.90;;;;;;5001362;28;20042;-81
2023/12/05 10:40:57;;;;;;;21.48;11.57;;;3.20;99.90;;;;;;5013769;28;20115;-79
2023/12/05 10:43:24;;;;;;;17.55;9.88;;;3.10;99.90;;;;;;5023848;28;20071;-79
2023/12/05 10:45:51;;;;;;;20.60;11.30;;;3.10;99.90;;;;;;5002693;28;20055;-84
2023/12/05 10:48:17;;;;;;;21.85;11.85;;;3.10;99.90;;;;;;5011044;28;20598;-79
2023/12/05 10:50:45;;;;;;;20.70;11.77;;;3.00;99.90;;;;;;5020872;28;20074;-81
2023/12/05 10:53:11;;;;;;;19.27;11.60;;;3.00;99.90;;;;;;5014480;28;20029;-80
2023/12/05 10:55:36;;;;;;;16.65;11.00;;;3.00;99.90;;;;;;5026269;28;20022;-81
2023/12/05 10:58:03;;;;;;;19.20;10.52;;;3.00;99.90;;;;;;5024376;28;20124;-80
2023/12/05 11:00:29;;;;;;;18.95;11.63;;;3.00;99.90;;;;;;5022459;28;20053;-80
2023/12/05 11:02:55;;;;;;;19.85;11.20;;;3.00;99.90;;;;;;5020112;28;20017;-81
2023/12/05 11:05:24;;;;;;;18.75;10.82;;;3.10;99.90;;;;;;5020694;28;20112;-81
2023/12/05 11:07:52;;;;;;;18.10;10.50;;;3.00;99.90;;;;;;5019804;28;20544;-84
2023/12/05 11:10:17;;;;;;;20.45;12.35;;;3.00;99.90;;;;;;5019466;28;20486;-81
2023/12/05 11:12:49;;;;;;;23.58;12.52;;;3.00;99.90;;;;;;5021381;28;20033;-81
2023/12/05 11:15:23;;;;;;;21.08;11.43;;;3.10;99.90;;;;;;5024672;28;20032;-82
2023/12/05 11:17:52;;;;;;;19.63;11.13;;;3.20;99.90;;;;;;5018018;28;20098;-82
2023/12/05 11:20:44;;;;;;;18.27;11.10;;;3.30;99.90;;;;;;5018249;28;20025;-83
2023/12/05 11:23:28;;;;;;;18.20;11.30;;;3.30;99.90;;;;;;5003498;28;20226;-86
2023/12/05 11:26:08;;;;;;;16.33;9.57;;;3.30;99.90;;;;;;5022045;28;20410;-81
2023/12/05 11:28:49;;;;;;;17.48;10.82;;;3.30;99.90;;;;;;5022784;28;20025;-84
2023/12/05 11:31:29;;;;;;;21.58;12.02;;;3.30;99.90;;;;;;5024252;28;20029;-81
2023/12/05 11:34:19;;;;;;;27.08;15.02;;;3.30;99.90;;;;;;5023403;28;20266;-81
2023/12/05 11:37:00;;;;;;;28.90;16.85;;;3.20;99.90;;;;;;5015096;28;20048;-82
2023/12/05 11:39:26;;;;;;;40.72;23.05;;;3.20;99.90;;;;;;5019615;28;20398;-81
2023/12/05 11:42:14;;;;;;;28.83;16.00;;;3.20;99.90;;;;;;5004318;28;20400;-81
2023/12/05 11:44:42;;;;;;;31.13;19.27;;;3.20;99.90;;;;;;5021193;28;20025;-83
2023/12/05 11:47:26;;;;;;;23.75;13.52;;;3.20;99.90;;;;;;5021664;28;20421;-81
2023/12/05 11:49:55;;;;;;;20.58;13.13;;;3.20;99.90;;;;;;5003217;28;20072;-81
2023/12/05 11:52:27;;;;;;;18.42;11.35;;;3.20;99.90;;;;;;5020318;28;20025;-85
2023/12/05 11:54:53;;;;;;;19.15;11.27;;;3.10;99.90;;;;;;5006517;28;20195;-82
2023/12/05 11:57:23;;;;;;;20.23;11.18;;;3.20;99.90;;;;;;5020583;28;20048;-83
2023/12/05 11:59:52;;;;;;;17.90;10.98;;;3.30;99.90;;;;;;5023286;28;20508;-82
2023/12/05 12:02:23;;;;;;;17.05;11.70;;;3.30;99.90;;;;;;5020556;28;20120;-81
2023/12/05 12:04:59;;;;;;;14.77;9.75;;;3.30;99.90;;;;;;5024345;28;20163;-81
2023/12/05 12:07:25;;;;;;;20.73;11.45;;;3.40;99.90;;;;;;5025067;28;20021;-81
2023/12/05 12:09:51;;;;;;;14.90;10.27;;;3.40;99.90;;;;;;5023670;28;20029;-82
2023/12/05 12:12:17;;;;;;;18.33;10.85;;;3.50;99.90;;;;;;5016440;28;20039;-79
2023/12/05 12:14:43;;;;;;;19.23;10.00;;;3.50;99.90;;;;;;5015777;28;20029;-80
2023/12/05 12:17:11;;;;;;;14.05;9.25;;;3.70;99.90;;;;;;5020179;28;20072;-82
2023/12/05 12:19:38;;;;;;;22.65;13.23;;;3.80;99.90;;;;;;5020217;28;20025;-82
2023/12/05 12:22:13;;;;;;;18.90;11.45;;;3.70;99.90;;;;;;5011983;28;20025;-82
2023/12/05 12:24:42;;;;;;;;;;;3.70;99.90;;;;;;5020430;28;20041;-81
2023/12/05 12:27:09;;;;;;;13.63;9.00;;;3.70;99.90;;;;;;5017456;28;19909;-83
2023/12/05 12:29:37;;;;;;;13.13;8.27;;;3.70;99.90;;;;;;5020284;28;20021;-82
2023/12/05 12:32:10;;;;;;;14.90;10.07;;;3.60;99.90;;;;;;5007197;28;20034;-84
2023/12/05 12:34:38;;;;;;;13.15;8.88;;;3.60;99.90;;;;;;5025615;28;20060;-81
2023/12/05 12:37:06;;;;;;;15.18;9.23;;;3.60;99.90;;;;;;5020381;28;20076;-82
2023/12/05 12:39:36;;;;;;;14.45;8.85;;;3.60;99.90;;;;;;5020854;28;20037;-80